CLST,Max TemperatureF,Mean TemperatureF,Min TemperatureF,Max Dew PointF,MeanDew PointF,Min DewpointF,Max Humidity, Mean Humidity, Min Humidity, Max Sea Level PressureIn, Mean Sea Level PressureIn, Min Sea Level PressureIn, Max VisibilityMiles, Mean VisibilityMiles, Min VisibilityMiles, Max Wind SpeedMPH, Mean Wind SpeedMPH, Max Gust SpeedMPH,PrecipitationIn, CloudCover, Events, WindDirDegrees
2013-2-1,84,70,57,57,56,54,94,64,30,30.06,29.97,29.90,6,4,2,20,8,,0.00,6,,173
2013-2-2,92,74,57,58,54,50,88,53,16,30.06,29.99,29.85,6,5,3,16,7,,0.00,0,,171
2013-2-3,95,78,60,54,51,45,68,40,13,29.98,29.88,29.72,6,5,4,21,7,,0.00,0,,182
2013-2-4,87,72,58,55,49,43,59,38,18,29.86,29.83,29.74,6,6,6,18,7,,0.00,,,181
2013-2-5,83,72,60,58,55,54,77,56,30,29.92,29.84,29.77,6,6,6,17,9,,0.00,,,172
2013-2-6,86,72,57,57,56,55,94,61,28,30.01,29.93,29.83,6,5,1,15,8,,0.00,4,,173
2013-2-7,88,77,66,57,55,53,64,47,25,29.95,29.89,29.74,6,6,6,15,9,,0.00,3,,170
2013-2-8,86,76,65,59,56,54,68,51,28,29.89,29.85,29.77,6,6,6,16,9,,0.00,5,,177
2013-2-9,77,70,64,57,55,52,73,59,34,30.04,29.95,29.84,6,6,6,16,9,,0.00,7,,175
2013-2-10,83,72,61,56,55,53,73,55,28,30.06,30.01,29.94,6,6,6,18,8,,0.00,3,,185
2013-2-11,88,72,57,57,53,39,82,52,22,30.09,29.97,29.82,6,6,3,22,8,,0.00,3,,184
2013-2-12,86,72,57,55,52,48,77,50,22,29.98,29.94,29.83,6,6,6,20,7,,0.00,1,,179
2013-2-13,88,74,59,55,52,47,77,50,16,29.98,29.94,29.81,6,6,6,16,9,,0.00,1,,170
2013-2-14,91,74,56,50,46,34,67,36,10,29.98,29.94,29.81,6,6,6,17,7,,0.00,,,185
2013-2-15,92,76,59,54,48,41,67,39,10,29.95,29.91,29.78,6,6,6,23,7,34,0.00,1,,180
2013-2-16,83,70,57,58,52,48,82,53,20,29.98,29.92,29.84,6,6,6,21,9,,0.00,1,,181
2013-2-17,78,69,60,58,53,41,88,58,25,29.98,29.95,29.88,6,6,6,20,10,,0.00,4,,183
2013-2-18,81,68,55,46,41,36,54,37,16,30.04,29.95,29.86,6,6,6,17,9,,0.00,3,,177
2013-2-19,80,64,48,43,38,34,66,38,17,30.04,29.97,29.84,6,6,6,20,7,,0.00,,,192
2013-2-20,83,68,53,45,42,39,63,38,14,30.01,29.95,29.83,6,6,6,18,7,,0.00,,,171
2013-2-21,92,72,53,45,41,32,63,34,8,29.92,29.85,29.69,6,6,6,17,5,,0.00,,,168
2013-2-22,90,73,56,46,42,35,59,33,7,29.95,29.87,29.80,6,6,6,22,7,,0.00,,,188
2013-2-23,85,72,59,48,45,41,63,38,13,30.04,29.97,29.86,6,6,6,20,9,,0.00,5,,184
2013-2-24,88,72,55,48,44,39,63,37,12,29.98,29.92,29.76,6,6,6,15,7,,0.00,,,175
2013-2-25,93,74,54,45,40,30,59,31,6,29.86,29.80,29.66,6,6,6,16,7,,0.04,,,180
2013-2-26,86,70,55,52,46,43,63,40,14,29.92,29.85,29.76,6,6,5,18,7,,0.00,0,,187
2013-2-27,86,69,52,54,51,47,88,52,20,29.95,29.91,29.83,6,6,4,18,7,,0.00,0,,174
2013-2-28,84,68,52,50,47,41,82,48,17,29.92,29.87,29.77,6,6,4,17,7,,0.00,1,,180